Time;durP1;ratioP1;P1;durP2;ratioP2;P2;SDS_P1;SDS_P2;PMS_P1;PMS_P2;Temp;Humidity;BMP_temperature;BMP_pressure;BME280_temperature;BME280_humidity;BME280_pressure;Samples;Min_cycle;Max_cycle;Signal;HPM_P1;HPM_P2
2022/05/23 00:02:18;;;;;;;1.50;1.00;;;13.80;99.90;;;;;;5069887;28;20600;-82
2022/05/23 00:04:45;;;;;;;7.43;1.20;;;13.70;99.90;;;;;;5068652;28;20087;-82
2022/05/23 00:07:15;;;;;;;3.83;0.98;;;13.70;99.90;;;;;;5053040;28;20096;-82
2022/05/23 00:09:42;;;;;;;4.10;1.40;;;13.70;99.90;;;;;;5068715;28;20118;-83
2022/05/23 00:12:08;;;;;;;3.70;1.17;;;14.70;99.90;;;;;;5086126;28;20051;-83
2022/05/23 00:14:34;;;;;;;2.58;0.93;;;13.60;99.90;;;;;;5086088;28;20036;-82
2022/05/23 00:17:00;;;;;;;3.63;1.20;;;13.60;99.90;;;;;;5068917;28;20036;-82
2022/05/23 00:19:26;;;;;;;3.60;0.90;;;13.50;99.90;;;;;;5086164;28;20044;-83
2022/05/23 00:21:51;;;;;;;3.47;1.25;;;13.50;99.90;;;;;;5085070;28;20041;-83
2022/05/23 00:24:20;;;;;;;2.40;1.10;;;13.40;99.90;;;;;;5069427;28;20044;-82
2022/05/23 00:26:49;;;;;;;4.25;1.38;;;13.40;99.90;;;;;;5068563;28;20106;-83
2022/05/23 00:29:15;;;;;;;4.38;1.23;;;13.30;99.90;;;;;;5085740;28;20047;-82
2022/05/23 00:35:17;;;;;;;3.78;1.30;;;13.30;99.90;;;;;;5069323;28;20422;-83
2022/05/23 00:37:11;;;;;;;2.75;1.35;;;13.20;99.90;;;;;;5072063;28;20119;-82
2022/05/23 00:39:37;;;;;;;7.45;1.55;;;13.10;99.90;;;;;;5068616;28;20220;-82
2022/05/23 00:44:55;;;;;;;3.92;1.48;;;13.00;99.90;;;;;;5085672;28;20047;-82
2022/05/23 00:47:24;;;;;;;3.60;1.50;;;13.00;99.90;;;;;;5072480;28;20126;-82
2022/05/23 00:49:50;;;;;;;5.53;1.67;;;12.80;99.90;;;;;;5073545;28;20094;-83
2022/05/23 00:52:39;;;;;;;5.70;1.60;;;12.80;99.90;;;;;;5088982;28;20064;-82
2022/05/23 00:55:17;;;;;;;2.83;1.48;;;12.80;99.90;;;;;;5089614;28;20044;-82
2022/05/23 00:57:46;;;;;;;5.18;1.83;;;12.70;99.90;;;;;;5090040;28;20055;-82
2022/05/23 01:00:12;;;;;;;2.03;1.27;;;12.70;99.90;;;;;;5072595;28;20382;-82
2022/05/23 01:02:39;;;;;;;6.68;2.13;;;12.70;99.90;;;;;;5073709;28;20082;-82
2022/05/23 01:05:06;;;;;;;3.30;1.77;;;13.60;99.90;;;;;;5071850;28;20055;-82
2022/05/23 01:07:32;;;;;;;3.58;1.83;;;12.60;99.90;;;;;;5089441;28;20134;-82
2022/05/23 01:09:58;;;;;;;4.10;2.10;;;12.50;99.90;;;;;;5072337;28;20122;-82
2022/05/23 01:12:25;;;;;;;2.65;1.73;;;12.50;99.90;;;;;;5072639;28;20193;-83
2022/05/23 01:14:54;;;;;;;2.78;2.00;;;12.60;99.90;;;;;;5089668;28;20379;-82
2022/05/23 01:17:22;;;;;;;4.90;1.92;;;12.40;99.90;;;;;;5071522;28;20565;-82
2022/05/23 01:19:48;;;;;;;4.22;1.70;;;12.40;99.90;;;;;;5072942;28;20140;-83
2022/05/23 01:22:20;;;;;;;6.78;2.45;;;13.00;99.90;;;;;;5071630;28;20121;-82
2022/05/23 01:25:04;;;;;;;4.00;2.25;;;12.40;99.90;;;;;;5088827;28;20064;-83
2022/05/23 01:27:32;;;;;;;5.30;2.15;;;12.30;99.90;;;;;;5089351;28;20509;-83
2022/05/23 01:29:58;;;;;;;3.90;1.95;;;12.30;99.90;;;;;;5088734;28;20052;-83
2022/05/23 01:32:23;;;;;;;3.70;2.40;;;12.30;99.90;;;;;;5072414;28;20379;-82
2022/05/23 01:34:49;;;;;;;7.45;3.22;;;12.20;99.90;;;;;;5088451;28;20050;-83
2022/05/23 01:37:16;;;;;;;6.88;3.45;;;12.30;99.90;;;;;;5088970;28;20144;-83
2022/05/23 01:39:42;;;;;;;8.65;2.42;;;12.20;99.90;;;;;;5054992;28;20043;-83
2022/05/23 01:42:08;;;;;;;3.67;2.38;;;12.20;99.90;;;;;;5089058;28;20040;-83
2022/05/23 01:44:34;;;;;;;7.05;2.72;;;12.20;99.90;;;;;;5071823;28;20054;-82
2022/05/23 01:47:10;;;;;;;4.97;2.63;;;12.20;99.90;;;;;;5088433;28;20465;-82
2022/05/23 01:49:36;;;;;;;4.53;3.00;;;12.10;99.90;;;;;;5088935;28;20115;-83
2022/05/23 01:52:02;;;;;;;3.47;2.53;;;12.10;99.90;;;;;;5070946;28;20131;-83
2022/05/23 01:54:28;;;;;;;4.30;2.63;;;12.10;99.90;;;;;;5088763;28;20454;-82
2022/05/23 01:56:54;;;;;;;5.30;2.60;;;12.10;99.90;;;;;;5088009;28;20082;-83
2022/05/23 02:02:04;;;;;;;4.35;2.85;;;12.10;99.90;;;;;;5060082;28;20131;-83
2022/05/23 02:04:29;;;;;;;11.75;2.78;;;12.10;99.90;;;;;;5087516;28;20488;-83
2022/05/23 02:06:55;;;;;;;4.57;2.92;;;12.10;99.90;;;;;;5071576;28;20044;-82
2022/05/23 02:09:26;;;;;;;3.00;2.30;;;12.10;99.90;;;;;;5087840;28;20043;-83
2022/05/23 02:11:55;;;;;;;4.97;2.42;;;12.20;99.90;;;;;;5072858;28;20418;-83
2022/05/23 02:14:20;;;;;;;5.07;2.72;;;12.20;99.90;;;;;;5071024;28;20109;-82
2022/05/23 02:16:46;;;;;;;5.82;2.75;;;12.20;99.90;;;;;;5088578;28;20079;-83
2022/05/23 02:19:12;;;;;;;7.65;2.83;;;12.20;99.90;;;;;;5071906;28;20453;-82
2022/05/23 02:21:37;;;;;;;4.60;2.42;;;12.30;99.90;;;;;;5087701;28;20398;-83
2022/05/23 02:24:03;;;;;;;4.50;2.33;;;12.30;99.90;;;;;;5088328;28;20055;-83
2022/05/23 02:26:30;;;;;;;3.85;2.38;;;12.30;99.90;;;;;;5087231;28;20444;-82
2022/05/23 02:28:56;;;;;;;6.97;2.42;;;12.30;99.90;;;;;;5071320;28;20048;-82
2022/05/23 02:31:22;;;;;;;4.80;2.00;;;12.30;99.90;;;;;;5070911;28;20067;-82
2022/05/23 02:33:48;;;;;;;5.45;2.25;;;12.40;99.90;;;;;;5088943;28;20036;-82
2022/05/23 02:36:14;;;;;;;4.70;2.33;;;12.30;99.90;;;;;;5089571;28;20043;-82
2022/05/23 02:38:39;;;;;;;8.18;2.25;;;12.40;99.90;;;;;;5088461;28;20402;-82
2022/05/23 02:41:05;;;;;;;6.95;2.25;;;12.40;99.90;;;;;;5088055;28;20170;-82
2022/05/23 02:43:31;;;;;;;3.28;2.08;;;12.40;99.90;;;;;;5086993;28;20043;-83
2022/05/23 02:45:57;;;;;;;6.82;2.45;;;12.40;99.90;;;;;;5071305;28;20047;-82
2022/05/23 02:48:23;;;;;;;4.82;2.28;;;12.40;99.90;;;;;;5070878;28;20452;-83
2022/05/23 02:50:49;;;;;;;11.75;2.17;;;12.30;99.90;;;;;;5070489;28;20040;-82
2022/05/23 02:53:15;;;;;;;3.47;1.90;;;12.40;99.90;;;;;;5088018;28;20066;-82
2022/05/23 02:55:41;;;;;;;2.40;1.98;;;12.40;99.90;;;;;;5037325;28;20040;-81
2022/05/23 02:58:07;;;;;;;6.50;1.95;;;12.40;99.90;;;;;;5087514;28;20062;-83
2022/05/23 03:00:34;;;;;;;4.88;1.90;;;12.40;99.90;;;;;;5086512;28;20123;-82
2022/05/23 03:03:03;;;;;;;3.40;2.42;;;12.40;99.90;;;;;;5087628;28;20059;-81
2022/05/23 03:05:47;;;;;;;5.30;2.15;;;12.40;99.90;;;;;;5053746;28;20048;-81
2022/05/23 03:08:17;;;;;;;4.15;2.08;;;12.40;99.90;;;;;;5086455;28;20453;-81
2022/05/23 03:10:42;;;;;;;5.28;1.70;;;12.30;99.90;;;;;;5070727;28;20126;-81
2022/05/23 03:13:09;;;;;;;5.25;1.85;;;12.40;99.90;;;;;;5069447;28;20131;-82
2022/05/23 03:15:36;;;;;;;3.10;1.73;;;12.30;99.90;;;;;;5087432;28;20070;-82
2022/05/23 03:18:02;;;;;;;4.68;2.13;;;12.30;99.90;;;;;;5087053;28;20433;-82
2022/05/23 03:20:28;;;;;;;7.00;1.95;;;12.30;99.90;;;;;;5053984;28;20040;-82
2022/05/23 03:28:23;;;;;;;9.93;2.72;;;13.00;99.90;;;;;;5086924;28;20119;-82
2022/05/23 03:30:49;;;;;;;3.83;1.40;;;12.30;99.90;;;;;;5086293;28;20402;-83
2022/05/23 03:33:16;;;;;;;2.95;1.60;;;12.30;99.90;;;;;;5087190;28;20048;-82
2022/05/23 03:35:42;;;;;;;6.38;2.30;;;12.30;99.90;;;;;;5086335;28;20539;-83
2022/05/23 03:38:09;;;;;;;1.98;1.77;;;12.30;99.90;;;;;;5069297;28;20036;-83
2022/05/23 03:40:36;;;;;;;3.63;1.95;;;12.20;99.90;;;;;;5069811;28;20072;-84
2022/05/23 03:43:02;;;;;;;4.32;1.45;;;12.30;99.90;;;;;;5085725;28;20483;-84
2022/05/23 03:45:28;;;;;;;2.33;1.50;;;12.20;99.90;;;;;;5052958;28;20351;-84
2022/05/23 03:47:55;;;;;;;5.28;2.08;;;12.20;99.90;;;;;;5069224;28;20562;-84
2022/05/23 03:50:24;;;;;;;2.30;1.98;;;12.20;99.90;;;;;;5086776;28;20532;-84
2022/05/23 03:52:50;;;;;;;6.10;2.05;;;12.20;99.90;;;;;;5087509;28;20051;-84
2022/05/23 03:55:17;;;;;;;8.85;2.58;;;12.20;99.90;;;;;;5086180;28;20044;-84
2022/05/23 03:57:43;;;;;;;5.38;1.70;;;12.30;99.90;;;;;;5069882;28;20413;-84
2022/05/23 04:00:12;;;;;;;6.75;2.03;;;12.30;99.90;;;;;;5068742;28;20028;-84
2022/05/23 04:02:38;;;;;;;4.38;1.73;;;12.40;99.90;;;;;;5087507;28;20105;-84
2022/05/23 04:05:04;;;;;;;9.15;2.55;;;12.60;99.90;;;;;;5052086;28;20043;-84
2022/05/23 04:07:31;;;;;;;3.72;1.63;;;12.50;99.90;;;;;;5086291;28;20058;-84
2022/05/23 04:09:57;;;;;;;6.00;2.13;;;12.60;99.90;;;;;;5086005;28;20127;-83
2022/05/23 04:12:23;;;;;;;4.68;1.70;;;12.60;99.90;;;;;;5069543;28;20447;-84
2022/05/23 04:14:48;;;;;;;4.70;1.60;;;12.70;99.90;;;;;;5069815;28;20494;-84
2022/05/23 04:17:16;;;;;;;4.00;1.77;;;12.70;99.90;;;;;;5051812;28;20403;-86
2022/05/23 04:19:42;;;;;;;5.07;1.70;;;12.80;99.90;;;;;;5085924;28;20051;-86
2022/05/23 04:22:08;;;;;;;3.70;1.60;;;12.80;99.90;;;;;;5068732;28;20439;-86
2022/05/23 04:24:33;;;;;;;6.63;1.95;;;12.90;99.90;;;;;;5052280;28;20063;-87
2022/05/23 04:26:59;;;;;;;4.78;2.00;;;12.90;99.90;;;;;;5052163;28;20044;-87
2022/05/23 04:29:25;;;;;;;3.83;2.25;;;12.90;99.90;;;;;;5069241;28;20102;-86
2022/05/23 04:31:50;;;;;;;6.30;2.30;;;12.90;99.90;;;;;;5052321;28;20067;-86
2022/05/23 04:37:01;;;;;;;5.68;2.10;;;13.00;99.90;;;;;;5071766;28;20048;-89
2022/05/23 04:39:27;;;;;;;5.00;2.53;;;13.00;99.90;;;;;;5068829;28;20048;-88
2022/05/23 04:41:53;;;;;;;5.03;2.10;;;13.00;99.90;;;;;;5069185;28;20047;-90
2022/05/23 04:44:18;;;;;;;4.13;2.00;;;13.00;99.90;;;;;;5085902;28;20490;-88
2022/05/23 04:52:14;;;;;;;6.35;2.30;;;13.10;99.90;;;;;;5085766;28;20464;-85
2022/05/23 04:54:42;;;;;;;4.68;2.47;;;13.10;99.90;;;;;;5086007;28;20052;-86
2022/05/23 04:57:10;;;;;;;3.88;2.00;;;13.10;99.90;;;;;;5069098;28;20036;-85
2022/05/23 04:59:37;;;;;;;4.53;2.08;;;13.20;99.90;;;;;;5068605;28;20123;-85
2022/05/23 05:02:03;;;;;;;3.85;1.98;;;13.30;99.90;;;;;;5085673;28;20047;-85
2022/05/23 05:04:31;;;;;;;6.93;3.20;;;13.30;99.90;;;;;;5052430;28;20184;-95
2022/05/23 05:06:57;;;;;;;8.65;2.65;;;13.40;99.90;;;;;;5071419;28;20044;-90
2022/05/23 05:09:22;;;;;;;7.55;2.33;;;13.50;99.90;;;;;;5036664;28;20043;-87
2022/05/23 05:11:48;;;;;;;6.57;2.35;;;13.60;99.90;;;;;;5085769;28;20459;-86
2022/05/23 05:14:17;;;;;;;8.98;2.50;;;13.80;99.90;;;;;;5069043;28;20052;-89
2022/05/23 05:16:43;;;;;;;4.95;2.15;;;13.60;99.90;;;;;;5068745;28;20105;-80
2022/05/23 05:19:08;;;;;;;6.30;2.35;;;14.00;99.90;;;;;;5085701;28;20075;-80
2022/05/23 05:21:34;;;;;;;6.05;2.90;;;14.20;99.90;;;;;;5068589;28;20074;-86
2022/05/23 05:24:00;;;;;;;11.70;3.28;;;14.40;99.90;;;;;;5052744;28;20080;-85
2022/05/23 05:26:26;;;;;;;7.10;2.50;;;14.40;99.90;;;;;;5084924;28;20040;-79
2022/05/23 05:28:52;;;;;;;7.60;2.75;;;14.20;99.90;;;;;;5086965;28;20123;-79
2022/05/23 05:31:29;;;;;;;6.68;2.75;;;14.50;99.90;;;;;;5069668;28;20048;-83
2022/05/23 05:34:04;;;;;;;5.07;2.63;;;14.50;99.90;;;;;;5072393;28;20040;-78
2022/05/23 05:36:36;;;;;;;4.75;2.85;;;15.20;99.90;;;;;;5089162;28;20044;-85
2022/05/23 05:39:04;;;;;;;8.15;3.10;;;14.60;99.90;;;;;;5071479;28;20040;-80
2022/05/23 05:41:41;;;;;;;5.70;2.55;;;14.60;99.90;;;;;;5088752;28;20047;-81
2022/05/23 05:44:11;;;;;;;5.05;2.72;;;14.60;99.90;;;;;;5088583;28;20051;-79
2022/05/23 05:46:41;;;;;;;4.80;2.88;;;14.60;99.90;;;;;;5071794;28;20078;-78
2022/05/23 05:49:12;;;;;;;6.05;2.80;;;14.70;99.90;;;;;;5089007;28;20432;-79
2022/05/23 05:51:40;;;;;;;7.30;3.17;;;14.70;99.90;;;;;;5089755;28;20039;-79
2022/05/23 05:54:07;;;;;;;5.82;2.85;;;14.70;99.90;;;;;;5072085;28;20147;-78
2022/05/23 05:56:33;;;;;;;7.90;3.10;;;14.80;99.90;;;;;;5089932;28;20422;-78
2022/05/23 05:59:00;;;;;;;5.53;2.92;;;14.80;99.90;;;;;;5090059;28;20116;-78
2022/05/23 06:01:25;;;;;;;7.47;3.50;;;14.80;99.90;;;;;;5088692;28;20044;-79
2022/05/23 06:03:51;;;;;;;7.50;2.67;;;14.90;99.90;;;;;;5087814;28;20101;-79
2022/05/23 06:11:45;;;;;;;4.30;2.47;;;15.00;99.90;;;;;;5088049;28;20100;-81
2022/05/23 06:14:11;;;;;;;5.25;3.00;;;15.10;99.90;;;;;;5038215;28;20402;-81
2022/05/23 06:16:38;;;;;;;5.72;3.00;;;15.10;99.90;;;;;;5088245;28;20464;-82
2022/05/23 06:19:05;;;;;;;8.23;3.22;;;15.20;99.90;;;;;;5071490;28;20437;-81
2022/05/23 06:21:31;;;;;;;5.55;2.92;;;15.20;99.90;;;;;;5054026;28;20262;-81
2022/05/23 06:23:57;;;;;;;7.13;3.55;;;15.30;99.90;;;;;;5089315;28;20108;-84
2022/05/23 06:26:26;;;;;;;6.82;3.50;;;15.60;99.90;;;;;;5087468;28;20044;-84
2022/05/23 06:28:52;;;;;;;8.73;3.47;;;15.30;99.90;;;;;;5087737;28;20040;-85
2022/05/23 06:31:19;;;;;;;5.45;3.38;;;15.40;99.90;;;;;;5070988;28;20051;-84
2022/05/23 06:33:46;;;;;;;6.53;3.13;;;15.50;99.90;;;;;;5054522;28;20400;-85
2022/05/23 06:36:13;;;;;;;9.23;3.63;;;15.60;99.90;;;;;;5055282;28;20044;-87
2022/05/23 06:38:39;;;;;;;9.63;3.70;;;15.70;99.90;;;;;;5087393;28;20137;-85
2022/05/23 06:41:07;;;;;;;8.10;3.85;;;15.70;99.90;;;;;;5087337;28;20209;-85
2022/05/23 06:43:33;;;;;;;6.80;3.83;;;15.80;99.90;;;;;;5086809;28;20052;-85
2022/05/23 06:45:59;;;;;;;8.13;3.85;;;15.80;99.90;;;;;;5070674;28;20036;-86
2022/05/23 06:48:26;;;;;;;11.73;4.00;;;15.80;99.90;;;;;;5070069;28;20044;-85
2022/05/23 06:50:52;;;;;;;6.07;3.80;;;15.90;99.90;;;;;;5086854;28;20177;-85
2022/05/23 06:53:21;;;;;;;9.38;3.85;;;16.00;99.90;;;;;;5087084;28;20040;-85
2022/05/23 06:55:48;;;;;;;6.72;3.85;;;16.10;99.90;;;;;;5069616;28;20080;-85
2022/05/23 06:58:14;;;;;;;7.20;3.85;;;16.40;99.90;;;;;;5070010;28;20050;-85
2022/05/23 07:00:40;;;;;;;10.05;4.30;;;16.30;99.90;;;;;;5070116;28;20058;-86
2022/05/23 07:03:06;;;;;;;9.20;3.97;;;16.40;99.90;;;;;;5087386;28;20043;-86
2022/05/23 07:13:48;;;;;;;8.88;3.50;;;16.90;99.90;;;;;;5086385;28;20106;-86
2022/05/23 07:16:16;;;;;;;7.97;3.65;;;17.00;99.90;;;;;;5069755;28;20079;-86
2022/05/23 07:18:42;;;;;;;9.32;3.55;;;17.10;99.90;;;;;;5053719;28;20036;-86
2022/05/23 07:21:07;;;;;;;5.50;3.47;;;17.30;99.90;;;;;;5069717;28;20430;-86
2022/05/23 07:23:35;;;;;;;7.32;3.25;;;17.40;99.90;;;;;;5069459;28;20056;-86
2022/05/23 07:26:06;;;;;;;7.30;3.50;;;17.50;99.90;;;;;;5069584;28;20051;-85
2022/05/23 07:28:32;;;;;;;9.07;3.33;;;17.60;99.90;;;;;;5070140;28;20046;-86
2022/05/23 07:30:58;;;;;;;7.35;3.42;;;17.70;99.90;;;;;;5069305;28;20485;-85
2022/05/23 07:33:24;;;;;;;5.10;3.08;;;17.70;99.90;;;;;;5086646;28;20052;-84
2022/05/23 07:35:54;;;;;;;4.25;3.38;;;17.90;99.90;;;;;;5086357;28;20133;-85
2022/05/23 07:38:20;;;;;;;6.18;3.10;;;18.00;99.90;;;;;;5087045;28;20044;-79
2022/05/23 07:40:50;;;;;;;7.20;2.40;;;18.10;99.90;;;;;;5086746;28;20043;-81
2022/05/23 07:43:16;;;;;;;6.90;2.90;;;18.20;99.90;;;;;;5087622;28;20400;-80
2022/05/23 07:45:42;;;;;;;8.43;3.10;;;18.30;99.90;;;;;;5086228;28;20048;-86
2022/05/23 07:48:08;;;;;;;6.55;2.83;;;18.50;99.90;;;;;;5052383;28;20040;-87
2022/05/23 07:50:34;;;;;;;7.82;2.92;;;18.60;99.90;;;;;;5086896;28;20044;-88
2022/05/23 08:01:21;;;;;;;7.90;3.22;;;19.00;99.90;;;;;;5085728;28;20501;-87
2022/05/23 08:03:47;;;;;;;6.35;2.67;;;19.10;99.90;;;;;;5086027;28;20036;-81
2022/05/23 08:06:13;;;;;;;10.10;3.72;;;19.20;99.90;;;;;;5087814;28;20410;-79
2022/05/23 08:08:39;;;;;;;4.45;3.15;;;19.20;99.90;;;;;;5087088;28;20131;-86
2022/05/23 08:11:08;;;;;;;8.40;3.00;;;19.30;99.90;;;;;;5085795;28;20072;-89
2022/05/23 08:13:40;;;;;;;10.02;2.92;;;19.40;99.90;;;;;;5052381;28;20028;-88
2022/05/23 08:16:06;;;;;;;7.20;3.28;;;19.50;99.90;;;;;;5068963;28;20095;-88
2022/05/23 08:18:32;;;;;;;8.75;3.40;;;19.60;99.90;;;;;;5085599;28;20079;-87
2022/05/23 08:20:58;;;;;;;5.05;2.88;;;19.70;99.90;;;;;;5068847;28;20044;-87
2022/05/23 08:23:24;;;;;;;5.53;3.08;;;19.80;99.90;;;;;;5069208;28;20394;-88
2022/05/23 08:25:50;;;;;;;3.60;2.83;;;19.80;99.90;;;;;;5051814;28;20135;-87
2022/05/23 08:28:16;;;;;;;6.53;3.00;;;19.90;99.90;;;;;;5035754;28;20036;-88
2022/05/23 08:30:42;;;;;;;5.78;3.05;;;19.90;99.90;;;;;;5068317;28;20050;-87
2022/05/23 08:33:08;;;;;;;4.80;2.65;;;20.10;99.90;;;;;;5085507;28;20040;-88
2022/05/23 08:35:33;;;;;;;5.32;3.00;;;20.10;99.90;;;;;;5051948;28;20040;-88
2022/05/23 08:37:59;;;;;;;5.97;3.13;;;20.10;99.90;;;;;;5085493;28;20055;-87
2022/05/23 08:40:36;;;;;;;5.75;2.97;;;20.20;99.90;;;;;;5086175;28;20048;-88
2022/05/23 08:43:05;;;;;;;7.18;3.55;;;20.30;99.90;;;;;;5089010;28;20517;-88
2022/05/23 08:45:40;;;;;;;5.85;2.90;;;20.50;99.90;;;;;;5088274;28;20066;-83
2022/05/23 08:48:11;;;;;;;5.30;3.15;;;20.70;99.90;;;;;;5089227;28;20032;-89
2022/05/23 08:50:50;;;;;;;5.70;3.10;;;20.90;99.90;;;;;;5072413;28;20048;-89
2022/05/23 08:53:24;;;;;;;9.65;3.45;;;21.10;99.90;;;;;;5087685;28;20402;-89
2022/05/23 08:55:58;;;;;;;8.85;3.30;;;21.30;99.90;;;;;;5072339;28;20131;-88
2022/05/23 08:58:52;;;;;;;7.22;3.03;;;21.50;99.90;;;;;;5088412;28;20109;-89
2022/05/23 09:01:25;;;;;;;3.92;2.65;;;21.60;99.90;;;;;;5068308;28;20051;-87
2022/05/23 09:03:59;;;;;;;7.03;3.53;;;21.70;99.90;;;;;;5088876;28;20048;-88
2022/05/23 09:06:29;;;;;;;12.02;3.78;;;21.80;99.90;;;;;;5088804;28;20135;-88
2022/05/23 09:09:01;;;;;;;5.80;3.13;;;21.80;99.90;;;;;;5092281;28;20083;-88
2022/05/23 09:11:47;;;;;;;6.28;3.28;;;21.70;99.90;;;;;;5075946;28;20052;-88
2022/05/23 09:14:16;;;;;;;4.65;3.10;;;21.60;99.90;;;;;;5074040;28;20079;-89
2022/05/23 09:16:50;;;;;;;7.78;3.15;;;21.50;99.90;;;;;;5092623;28;20036;-88
2022/05/23 09:19:34;;;;;;;9.10;3.33;;;21.60;99.90;;;;;;5076136;28;20115;-89
2022/05/23 09:22:15;;;;;;;5.97;2.95;;;21.70;99.90;;;;;;5078098;28;20049;-89
2022/05/23 09:24:45;;;;;;;6.22;2.70;;;22.00;99.90;;;;;;5077869;28;20409;-88
2022/05/23 09:27:37;;;;;;;7.80;3.00;;;22.10;99.90;;;;;;5092786;28;20047;-89
2022/05/23 09:30:11;;;;;;;6.53;3.33;;;22.30;99.90;;;;;;5097235;28;20047;-89
2022/05/23 09:32:52;;;;;;;4.70;2.80;;;22.40;99.90;;;;;;5111720;28;20124;-88
2022/05/23 09:35:22;;;;;;;4.38;2.83;;;22.50;99.90;;;;;;5111442;28;20068;-88
2022/05/23 09:38:26;;;;;;;5.80;2.53;;;22.70;99.90;;;;;;5108982;28;20044;-88
2022/05/23 09:40:53;;;;;;;5.57;2.60;;;22.90;99.90;;;;;;5092830;28;20060;-90
2022/05/23 09:49:02;;;;;;;3.30;1.95;;;23.40;99.60;;;;;;5091880;28;20568;-89
2022/05/23 09:51:28;;;;;;;6.78;2.88;;;23.60;99.90;;;;;;5075789;28;20040;-88
2022/05/23 09:53:54;;;;;;;4.75;2.08;;;23.80;99.10;;;;;;5058748;28;20367;-90
2022/05/23 09:56:34;;;;;;;5.70;2.08;;;23.90;97.90;;;;;;5057548;28;20070;-88
2022/05/23 09:59:05;;;;;;;5.05;1.70;;;24.00;93.90;;;;;;5092318;28;20044;-89
2022/05/23 10:01:33;;;;;;;3.00;1.17;;;24.10;94.90;;;;;;5090052;28;20431;-90
2022/05/23 10:04:00;;;;;;;3.50;1.42;;;24.20;94.40;;;;;;5074741;28;20051;-90
2022/05/23 10:06:42;;;;;;;4.05;1.38;;;24.30;94.10;;;;;;5090830;28;20074;-90
2022/05/23 10:09:26;;;;;;;4.85;1.70;;;24.40;92.70;;;;;;5091634;28;20040;-87
2022/05/23 10:12:00;;;;;;;2.85;1.67;;;24.50;92.20;;;;;;5075012;28;20106;-86
2022/05/23 10:14:44;;;;;;;4.35;1.63;;;24.60;93.00;;;;;;5090208;28;20131;-87
2022/05/23 10:17:23;;;;;;;3.63;1.83;;;24.60;89.60;;;;;;5091280;28;20043;-87
2022/05/23 10:19:49;;;;;;;3.70;1.42;;;24.60;92.80;;;;;;5074373;28;20081;-87
2022/05/23 10:22:23;;;;;;;5.22;2.03;;;24.60;92.50;;;;;;5089797;28;20110;-86
2022/05/23 10:24:57;;;;;;;8.05;2.03;;;24.50;92.00;;;;;;5091363;28;20067;-88
2022/05/23 10:27:37;;;;;;;3.03;1.70;;;24.40;91.10;;;;;;5072637;28;20040;-88
2022/05/23 10:30:07;;;;;;;3.30;1.60;;;24.50;88.10;;;;;;5091153;28;20055;-89
2022/05/23 10:32:41;;;;;;;8.65;1.67;;;24.40;91.40;;;;;;5073225;28;20062;-88
2022/05/23 10:35:29;;;;;;;2.92;1.48;;;24.40;91.70;;;;;;5089387;28;20520;-90
2022/05/23 10:42:07;;;;;;;3.80;1.77;;;24.50;92.20;;;;;;5092388;28;20040;-93
2022/05/23 10:43:37;;;;;;;3.88;1.63;;;24.70;92.80;;;;;;5091904;28;20390;-94
2022/05/23 10:46:04;;;;;;;3.30;1.42;;;24.80;92.10;;;;;;5092960;28;20052;-94
2022/05/23 10:48:45;;;;;;;3.83;1.63;;;25.10;91.80;;;;;;5057051;28;20447;-94
2022/05/23 10:51:55;;;;;;;5.07;1.27;;;25.40;84.90;;;;;;5092112;28;20066;-93
2022/05/23 10:54:39;;;;;;;5.95;1.80;;;25.60;82.50;;;;;;5057812;28;20052;-90
2022/05/23 10:57:24;;;;;;;2.92;1.33;;;25.70;85.60;;;;;;5074707;28;20151;-91
2022/05/23 10:59:53;;;;;;;3.17;1.33;;;25.80;84.20;;;;;;5091943;28;20039;-92
2022/05/23 11:02:40;;;;;;;3.25;1.20;;;25.90;79.80;;;;;;5091412;28;20066;-88
2022/05/23 11:05:15;;;;;;;3.08;1.10;;;26.00;75.60;;;;;;5090514;28;20122;-88
2022/05/23 11:07:55;;;;;;;4.10;1.38;;;25.90;74.80;;;;;;5090940;28;20044;-88
2022/05/23 11:10:38;;;;;;;4.72;1.35;;;26.10;78.30;;;;;;5089202;28;20056;-87
2022/05/23 11:13:03;;;;;;;;;;;26.20;75.30;;;;;;5075801;28;20043;-88
2022/05/23 11:15:49;;;;;;;6.15;1.60;;;26.30;70.60;;;;;;5074440;28;19927;-87
2022/05/23 11:18:56;;;;;;;3.03;1.20;;;26.50;76.10;;;;;;5091936;28;20104;-86
2022/05/23 11:21:56;;;;;;;3.47;1.30;;;26.60;74.10;;;;;;5091135;28;20055;-86
2022/05/23 11:24:53;;;;;;;2.08;1.42;;;26.80;72.50;;;;;;5097158;28;20047;-85
2022/05/23 11:33:42;;;;;;;4.65;1.05;;;27.20;67.50;;;;;;5092930;28;20044;-86
2022/05/23 11:36:09;;;;;;;3.20;1.40;;;27.20;65.40;;;;;;5092611;28;20541;-85
2022/05/23 11:38:45;;;;;;;2.47;1.00;;;27.20;66.10;;;;;;5076865;28;20044;-85
2022/05/23 11:41:32;;;;;;;2.10;0.85;;;27.30;62.40;;;;;;5094103;28;20052;-85
2022/05/23 11:43:59;;;;;;;3.15;1.00;;;27.20;53.90;;;;;;5091294;28;20047;-86
2022/05/23 11:46:48;;;;;;;3.05;0.90;;;27.10;59.00;;;;;;5078008;28;20401;-85
2022/05/23 11:49:40;;;;;;;2.40;0.88;;;27.10;57.60;;;;;;5093236;28;20121;-85
2022/05/23 11:52:15;;;;;;;;;;;27.10;55.20;;;;;;5075593;28;20109;-86
2022/05/23 11:54:42;;;;;;;1.70;0.70;;;27.10;53.80;;;;;;5077477;28;19927;-89
2022/05/23 11:57:13;;;;;;;2.88;0.88;;;27.00;58.00;;;;;;5091073;28;20696;-86
2022/05/23 11:59:38;;;;;;;4.13;1.10;;;26.80;57.30;;;;;;5093759;28;20494;-86
2022/05/23 12:02:07;;;;;;;2.88;1.10;;;26.60;58.00;;;;;;5092081;28;20051;-86
2022/05/23 12:04:48;;;;;;;2.17;1.20;;;26.40;57.90;;;;;;5073309;28;20090;-86
2022/05/23 12:07:40;;;;;;;2.60;0.82;;;26.40;57.90;;;;;;5088684;28;20055;-86
2022/05/23 12:10:21;;;;;;;6.45;1.15;;;26.50;58.20;;;;;;5069415;28;20104;-86
2022/05/23 12:12:56;;;;;;;5.20;1.20;;;26.60;58.10;;;;;;5088801;28;20484;-87
2022/05/23 12:15:43;;;;;;;1.98;1.00;;;26.60;58.40;;;;;;5088135;28;20485;-88
2022/05/23 12:18:12;;;;;;;2.53;0.88;;;26.70;59.40;;;;;;5085864;28;20047;-88
2022/05/23 12:20:59;;;;;;;2.53;0.95;;;26.70;58.60;;;;;;5088234;28;20418;-85
2022/05/23 12:23:36;;;;;;;2.13;0.80;;;26.60;57.30;;;;;;5086591;28;20051;-84
2022/05/23 12:26:11;;;;;;;3.40;0.93;;;26.60;57.70;;;;;;5086912;28;20056;-85
2022/05/23 12:28:48;;;;;;;3.55;0.95;;;26.40;57.40;;;;;;5087972;28;20044;-85
2022/05/23 12:31:20;;;;;;;3.95;1.05;;;26.40;56.50;;;;;;5086030;28;20109;-85
2022/05/23 12:34:12;;;;;;;1.58;0.80;;;26.50;58.40;;;;;;5072148;28;20047;-85
2022/05/23 12:36:47;;;;;;;2.35;0.60;;;26.50;55.70;;;;;;5069937;28;20094;-84
2022/05/23 12:39:47;;;;;;;2.05;0.93;;;26.40;57.10;;;;;;5069489;28;20566;-84
2022/05/23 12:42:45;;;;;;;2.00;0.98;;;26.30;56.60;;;;;;5092491;28;20147;-85
2022/05/23 12:45:16;;;;;;;3.92;0.90;;;26.20;57.20;;;;;;5091549;28;20370;-84
2022/05/23 12:47:57;;;;;;;4.37;0.93;;;26.10;56.80;;;;;;5073907;28;20620;-83
2022/05/23 12:50:40;;;;;;;2.97;1.00;;;25.90;56.50;;;;;;5092359;28;20405;-84
2022/05/23 12:53:25;;;;;;;1.60;0.90;;;25.80;57.00;;;;;;5089683;28;20517;-85
2022/05/23 12:56:16;;;;;;;1.98;1.08;;;25.70;58.50;;;;;;5075145;28;20440;-85
2022/05/23 12:59:20;;;;;;;2.83;1.08;;;25.60;58.80;;;;;;5091949;28;20047;-86
2022/05/23 13:01:53;;;;;;;3.30;1.00;;;25.60;59.70;;;;;;5089512;28;20043;-82
2022/05/23 13:04:48;;;;;;;3.08;1.08;;;25.50;60.10;;;;;;5091495;28;20048;-80
2022/05/23 13:07:44;;;;;;;6.10;1.05;;;25.40;60.60;;;;;;5089769;28;20506;-80
2022/05/23 13:10:17;;;;;;;2.92;1.20;;;25.30;61.20;;;;;;5081324;28;20131;-81
2022/05/23 13:13:07;;;;;;;5.45;1.33;;;25.30;61.40;;;;;;5091810;28;20052;-80
2022/05/23 13:15:34;;;;;;;1.40;0.90;;;25.20;61.70;;;;;;5092957;28;20080;-81
2022/05/23 13:23:35;;;;;;;3.10;1.42;;;25.10;64.70;;;;;;5090498;28;20402;-84
2022/05/23 13:26:09;;;;;;;2.42;1.27;;;25.00;65.20;;;;;;5089890;28;20502;-80
2022/05/23 13:28:41;;;;;;;3.88;1.27;;;25.00;65.80;;;;;;5091401;28;20051;-81
2022/05/23 13:31:23;;;;;;;2.67;1.10;;;24.90;67.40;;;;;;5089004;28;20094;-82
2022/05/23 13:33:49;;;;;;;4.43;1.10;;;24.80;68.70;;;;;;5091332;28;20052;-82
2022/05/23 13:36:18;;;;;;;7.32;1.02;;;24.70;69.10;;;;;;5089763;28;20215;-81
2022/05/23 13:39:01;;;;;;;1.98;1.00;;;24.70;70.00;;;;;;5090269;28;20044;-81
2022/05/23 13:41:30;;;;;;;3.58;1.38;;;24.70;70.50;;;;;;5074311;28;20048;-82
2022/05/23 13:43:56;;;;;;;1.98;1.20;;;24.60;71.60;;;;;;5071807;28;20367;-83
2022/05/23 13:46:26;;;;;;;6.95;1.55;;;24.60;71.60;;;;;;5091384;28;20138;-83
2022/05/23 13:49:20;;;;;;;1.40;1.10;;;24.50;72.10;;;;;;5089282;28;20047;-81
2022/05/23 13:51:52;;;;;;;3.05;1.23;;;24.40;71.50;;;;;;5089656;28;20406;-81
2022/05/23 13:54:38;;;;;;;1.30;0.80;;;24.30;72.70;;;;;;5090971;28;20105;-81
2022/05/23 13:57:05;;;;;;;2.10;1.00;;;24.30;72.00;;;;;;5088379;28;20048;-81
2022/05/23 13:59:40;;;;;;;3.95;1.27;;;24.30;73.10;;;;;;5090551;28;20059;-81
2022/05/23 14:02:13;;;;;;;3.38;1.10;;;24.20;73.00;;;;;;5089578;28;20044;-81
2022/05/23 14:04:41;;;;;;;4.80;1.23;;;24.20;73.70;;;;;;5089160;28;20043;-81
2022/05/23 14:07:09;;;;;;;4.65;1.08;;;24.10;74.00;;;;;;5091094;28;20040;-81
2022/05/23 14:09:45;;;;;;;4.50;1.73;;;24.10;76.90;;;;;;5071510;28;20153;-82
2022/05/23 14:12:21;;;;;;;3.88;1.80;;;24.00;86.60;;;;;;5074468;28;20047;-84
2022/05/23 14:14:59;;;;;;;4.03;1.52;;;23.80;90.50;;;;;;5089220;28;20040;-84